sensor_id;sensor_type;location;lat;lon;timestamp;P1;durP1;ratioP1;P2;durP2;ratioP2
38083;SDS011;23894;51.466;7.444;2023-04-29T00:00:24;25.27;;;21.10;;
38083;SDS011;23894;51.466;7.444;2023-04-29T00:02:25;25.45;;;21.35;;
38083;SDS011;23894;51.466;7.444;2023-04-29T00:04:26;24.77;;;21.30;;
38083;SDS011;23894;51.466;7.444;2023-04-29T00:06:27;26.63;;;21.98;;
38083;SDS011;23894;51.466;7.444;2023-04-29T00:08:29;27.92;;;22.50;;
38083;SDS011;23894;51.466;7.444;2023-04-29T00:10:30;26.90;;;22.27;;
38083;SDS011;23894;51.466;7.444;2023-04-29T00:12:31;27.13;;;22.98;;
38083;SDS011;23894;51.466;7.444;2023-04-29T00:14:32;27.10;;;22.63;;
38083;SDS011;23894;51.466;7.444;2023-04-29T00:16:33;28.85;;;23.77;;
38083;SDS011;23894;51.466;7.444;2023-04-29T00:18:35;27.92;;;23.23;;
38083;SDS011;23894;51.466;7.444;2023-04-29T00:20:36;29.10;;;24.00;;
38083;SDS011;23894;51.466;7.444;2023-04-29T00:22:38;27.83;;;23.27;;
38083;SDS011;23894;51.466;7.444;2023-04-29T00:24:39;30.42;;;25.73;;
38083;SDS011;23894;51.466;7.444;2023-04-29T00:26:40;30.30;;;24.75;;
38083;SDS011;23894;51.466;7.444;2023-04-29T00:28:41;32.97;;;26.30;;
38083;SDS011;23894;51.466;7.444;2023-04-29T00:30:42;33.42;;;26.50;;
38083;SDS011;23894;51.466;7.444;2023-04-29T00:32:43;32.58;;;27.17;;
38083;SDS011;23894;51.466;7.444;2023-04-29T00:34:45;32.65;;;26.85;;
38083;SDS011;23894;51.466;7.444;2023-04-29T00:36:47;33.80;;;27.80;;
38083;SDS011;23894;51.466;7.444;2023-04-29T00:38:48;32.92;;;27.10;;
38083;SDS011;23894;51.466;7.444;2023-04-29T00:40:49;34.08;;;27.85;;
38083;SDS011;23894;51.466;7.444;2023-04-29T00:42:50;34.03;;;27.55;;
38083;SDS011;23894;51.466;7.444;2023-04-29T00:44:51;34.95;;;29.15;;
38083;SDS011;23894;51.466;7.444;2023-04-29T00:46:52;34.35;;;28.30;;
38083;SDS011;23894;51.466;7.444;2023-04-29T00:48:53;35.65;;;28.92;;
38083;SDS011;23894;51.466;7.444;2023-04-29T00:50:54;34.90;;;28.33;;
38083;SDS011;23894;51.466;7.444;2023-04-29T00:52:55;36.23;;;29.77;;
38083;SDS011;23894;51.466;7.444;2023-04-29T00:54:57;37.88;;;30.88;;
38083;SDS011;23894;51.466;7.444;2023-04-29T00:56:58;37.50;;;32.03;;
38083;SDS011;23894;51.466;7.444;2023-04-29T00:59:01;39.90;;;32.53;;
38083;SDS011;23894;51.466;7.444;2023-04-29T01:01:03;41.40;;;33.65;;
38083;SDS011;23894;51.466;7.444;2023-04-29T01:03:05;39.55;;;32.97;;
38083;SDS011;23894;51.466;7.444;2023-04-29T01:05:06;41.45;;;33.88;;
38083;SDS011;23894;51.466;7.444;2023-04-29T01:07:14;41.65;;;35.35;;
38083;SDS011;23894;51.466;7.444;2023-04-29T01:11:28;40.40;;;35.28;;
38083;SDS011;23894;51.466;7.444;2023-04-29T01:13:37;43.53;;;36.95;;
38083;SDS011;23894;51.466;7.444;2023-04-29T01:15:46;42.20;;;36.00;;
38083;SDS011;23894;51.466;7.444;2023-04-29T01:19:57;41.88;;;35.97;;
38083;SDS011;23894;51.466;7.444;2023-04-29T01:21:58;44.53;;;36.67;;
38083;SDS011;23894;51.466;7.444;2023-04-29T01:23:59;44.03;;;36.38;;
38083;SDS011;23894;51.466;7.444;2023-04-29T01:26:01;44.80;;;35.35;;
38083;SDS011;23894;51.466;7.444;2023-04-29T01:32:31;42.45;;;35.22;;
38083;SDS011;23894;51.466;7.444;2023-04-29T01:36:52;46.05;;;36.63;;
38083;SDS011;23894;51.466;7.444;2023-04-29T01:39:07;45.27;;;37.30;;
38083;SDS011;23894;51.466;7.444;2023-04-29T01:41:10;48.70;;;37.72;;
38083;SDS011;23894;51.466;7.444;2023-04-29T01:43:12;50.00;;;40.47;;
38083;SDS011;23894;51.466;7.444;2023-04-29T01:45:14;56.58;;;42.35;;
38083;SDS011;23894;51.466;7.444;2023-04-29T01:47:16;58.08;;;43.33;;
38083;SDS011;23894;51.466;7.444;2023-04-29T01:49:23;60.15;;;44.88;;
38083;SDS011;23894;51.466;7.444;2023-04-29T01:51:24;60.92;;;44.83;;
38083;SDS011;23894;51.466;7.444;2023-04-29T01:53:25;62.03;;;46.60;;
38083;SDS011;23894;51.466;7.444;2023-04-29T01:55:26;66.38;;;49.10;;
38083;SDS011;23894;51.466;7.444;2023-04-29T01:57:27;67.20;;;49.03;;
38083;SDS011;23894;51.466;7.444;2023-04-29T01:59:29;66.65;;;50.08;;
38083;SDS011;23894;51.466;7.444;2023-04-29T02:01:30;68.35;;;49.88;;
38083;SDS011;23894;51.466;7.444;2023-04-29T02:03:31;73.88;;;52.75;;
38083;SDS011;23894;51.466;7.444;2023-04-29T02:05:32;70.40;;;50.47;;
38083;SDS011;23894;51.466;7.444;2023-04-29T02:07:33;77.10;;;54.07;;
38083;SDS011;23894;51.466;7.444;2023-04-29T02:09:34;73.55;;;51.60;;
38083;SDS011;23894;51.466;7.444;2023-04-29T02:11:35;74.65;;;54.60;;
38083;SDS011;23894;51.466;7.444;2023-04-29T02:13:36;79.38;;;56.97;;
38083;SDS011;23894;51.466;7.444;2023-04-29T02:15:37;82.63;;;56.72;;
38083;SDS011;23894;51.466;7.444;2023-04-29T02:17:38;80.05;;;55.08;;
38083;SDS011;23894;51.466;7.444;2023-04-29T02:19:40;87.63;;;58.13;;
38083;SDS011;23894;51.466;7.444;2023-04-29T02:21:41;76.70;;;57.13;;
38083;SDS011;23894;51.466;7.444;2023-04-29T02:23:42;84.13;;;57.72;;
38083;SDS011;23894;51.466;7.444;2023-04-29T02:25:43;81.47;;;56.28;;
38083;SDS011;23894;51.466;7.444;2023-04-29T02:27:44;80.22;;;57.03;;
38083;SDS011;23894;51.466;7.444;2023-04-29T02:29:45;87.90;;;57.33;;
38083;SDS011;23894;51.466;7.444;2023-04-29T02:31:46;79.10;;;53.80;;
38083;SDS011;23894;51.466;7.444;2023-04-29T02:33:47;82.75;;;54.42;;
38083;SDS011;23894;51.466;7.444;2023-04-29T02:35:48;78.80;;;53.80;;
38083;SDS011;23894;51.466;7.444;2023-04-29T02:37:49;86.10;;;56.47;;
38083;SDS011;23894;51.466;7.444;2023-04-29T02:39:51;101.13;;;60.33;;
38083;SDS011;23894;51.466;7.444;2023-04-29T02:41:55;91.80;;;57.35;;
38083;SDS011;23894;51.466;7.444;2023-04-29T02:43:56;92.18;;;57.88;;
38083;SDS011;23894;51.466;7.444;2023-04-29T02:45:57;84.47;;;53.75;;
38083;SDS011;23894;51.466;7.444;2023-04-29T02:47:59;79.07;;;51.10;;
38083;SDS011;23894;51.466;7.444;2023-04-29T02:50:00;84.18;;;52.38;;
38083;SDS011;23894;51.466;7.444;2023-04-29T02:52:01;83.85;;;51.47;;
38083;SDS011;23894;51.466;7.444;2023-04-29T02:54:02;80.70;;;51.72;;
38083;SDS011;23894;51.466;7.444;2023-04-29T02:56:03;77.07;;;50.60;;
38083;SDS011;23894;51.466;7.444;2023-04-29T02:58:04;81.50;;;51.17;;
38083;SDS011;23894;51.466;7.444;2023-04-29T03:00:06;76.00;;;50.05;;
38083;SDS011;23894;51.466;7.444;2023-04-29T03:02:07;82.45;;;52.65;;
38083;SDS011;23894;51.466;7.444;2023-04-29T03:04:08;75.90;;;49.40;;
38083;SDS011;23894;51.466;7.444;2023-04-29T03:06:09;80.25;;;50.55;;
38083;SDS011;23894;51.466;7.444;2023-04-29T03:08:10;67.75;;;47.28;;
38083;SDS011;23894;51.466;7.444;2023-04-29T03:10:11;67.93;;;45.63;;
38083;SDS011;23894;51.466;7.444;2023-04-29T03:12:12;66.18;;;44.90;;
38083;SDS011;23894;51.466;7.444;2023-04-29T03:14:15;58.08;;;41.33;;
38083;SDS011;23894;51.466;7.444;2023-04-29T03:16:16;60.72;;;41.45;;
38083;SDS011;23894;51.466;7.444;2023-04-29T03:18:17;57.78;;;39.45;;
38083;SDS011;23894;51.466;7.444;2023-04-29T03:20:18;56.35;;;39.22;;
38083;SDS011;23894;51.466;7.444;2023-04-29T03:22:19;52.30;;;37.92;;
38083;SDS011;23894;51.466;7.444;2023-04-29T03:24:20;44.15;;;33.30;;
38083;SDS011;23894;51.466;7.444;2023-04-29T03:26:21;42.60;;;32.10;;
38083;SDS011;23894;51.466;7.444;2023-04-29T03:28:23;40.05;;;31.45;;
38083;SDS011;23894;51.466;7.444;2023-04-29T03:30:24;39.58;;;30.20;;
38083;SDS011;23894;51.466;7.444;2023-04-29T03:32:25;38.33;;;29.08;;
38083;SDS011;23894;51.466;7.444;2023-04-29T03:34:26;37.67;;;30.35;;
38083;SDS011;23894;51.466;7.444;2023-04-29T03:36:27;36.60;;;29.33;;
38083;SDS011;23894;51.466;7.444;2023-04-29T03:38:28;39.45;;;30.42;;
38083;SDS011;23894;51.466;7.444;2023-04-29T03:40:29;40.85;;;31.00;;
38083;SDS011;23894;51.466;7.444;2023-04-29T03:42:30;42.57;;;30.67;;
38083;SDS011;23894;51.466;7.444;2023-04-29T03:44:31;42.95;;;32.13;;
38083;SDS011;23894;51.466;7.444;2023-04-29T03:46:32;44.78;;;32.50;;
38083;SDS011;23894;51.466;7.444;2023-04-29T03:48:33;43.78;;;32.17;;
38083;SDS011;23894;51.466;7.444;2023-04-29T03:50:35;42.65;;;32.15;;
38083;SDS011;23894;51.466;7.444;2023-04-29T03:52:36;41.78;;;32.75;;
38083;SDS011;23894;51.466;7.444;2023-04-29T03:54:37;43.88;;;32.72;;
38083;SDS011;23894;51.466;7.444;2023-04-29T03:56:38;48.67;;;35.58;;
38083;SDS011;23894;51.466;7.444;2023-04-29T03:58:40;44.85;;;33.83;;
38083;SDS011;23894;51.466;7.444;2023-04-29T04:00:41;45.25;;;33.38;;
38083;SDS011;23894;51.466;7.444;2023-04-29T04:02:42;47.17;;;32.83;;
38083;SDS011;23894;51.466;7.444;2023-04-29T04:04:43;44.10;;;33.60;;
38083;SDS011;23894;51.466;7.444;2023-04-29T04:06:44;46.20;;;34.08;;
38083;SDS011;23894;51.466;7.444;2023-04-29T04:08:50;43.95;;;32.50;;
38083;SDS011;23894;51.466;7.444;2023-04-29T04:10:51;43.30;;;32.95;;
38083;SDS011;23894;51.466;7.444;2023-04-29T04:12:52;43.80;;;32.97;;
38083;SDS011;23894;51.466;7.444;2023-04-29T04:14:53;46.15;;;34.38;;
38083;SDS011;23894;51.466;7.444;2023-04-29T04:16:56;42.90;;;32.63;;
38083;SDS011;23894;51.466;7.444;2023-04-29T04:18:57;43.80;;;33.05;;
38083;SDS011;23894;51.466;7.444;2023-04-29T04:21:03;46.65;;;34.13;;
38083;SDS011;23894;51.466;7.444;2023-04-29T04:23:04;43.47;;;32.78;;
38083;SDS011;23894;51.466;7.444;2023-04-29T04:25:06;42.40;;;31.50;;
38083;SDS011;23894;51.466;7.444;2023-04-29T04:27:07;43.47;;;32.40;;
38083;SDS011;23894;51.466;7.444;2023-04-29T04:29:08;40.05;;;31.02;;
38083;SDS011;23894;51.466;7.444;2023-04-29T04:31:09;38.78;;;30.63;;
38083;SDS011;23894;51.466;7.444;2023-04-29T04:33:10;43.95;;;33.25;;
38083;SDS011;23894;51.466;7.444;2023-04-29T04:35:11;43.95;;;31.95;;
38083;SDS011;23894;51.466;7.444;2023-04-29T04:37:12;43.60;;;32.90;;
38083;SDS011;23894;51.466;7.444;2023-04-29T04:39:13;42.55;;;32.05;;
38083;SDS011;23894;51.466;7.444;2023-04-29T04:41:14;41.50;;;31.30;;
38083;SDS011;23894;51.466;7.444;2023-04-29T04:43:15;40.78;;;31.02;;
38083;SDS011;23894;51.466;7.444;2023-04-29T04:45:16;36.10;;;29.23;;
38083;SDS011;23894;51.466;7.444;2023-04-29T04:47:17;35.53;;;27.92;;
38083;SDS011;23894;51.466;7.444;2023-04-29T04:49:18;38.50;;;30.07;;
38083;SDS011;23894;51.466;7.444;2023-04-29T04:51:19;35.17;;;27.70;;
38083;SDS011;23894;51.466;7.444;2023-04-29T04:53:20;40.58;;;30.67;;
38083;SDS011;23894;51.466;7.444;2023-04-29T04:55:22;39.65;;;29.70;;
38083;SDS011;23894;51.466;7.444;2023-04-29T04:57:23;41.78;;;31.42;;
38083;SDS011;23894;51.466;7.444;2023-04-29T04:59:24;42.33;;;32.33;;
38083;SDS011;23894;51.466;7.444;2023-04-29T05:01:25;39.88;;;31.23;;
38083;SDS011;23894;51.466;7.444;2023-04-29T05:03:26;39.05;;;30.77;;
38083;SDS011;23894;51.466;7.444;2023-04-29T05:05:27;39.53;;;31.35;;
38083;SDS011;23894;51.466;7.444;2023-04-29T05:07:28;37.38;;;31.02;;
38083;SDS011;23894;51.466;7.444;2023-04-29T05:09:30;36.63;;;29.35;;
38083;SDS011;23894;51.466;7.444;2023-04-29T05:11:31;37.45;;;29.75;;
38083;SDS011;23894;51.466;7.444;2023-04-29T05:13:32;37.22;;;29.67;;
38083;SDS011;23894;51.466;7.444;2023-04-29T05:15:33;35.33;;;29.48;;
38083;SDS011;23894;51.466;7.444;2023-04-29T05:17:34;37.17;;;28.92;;
38083;SDS011;23894;51.466;7.444;2023-04-29T05:19:35;37.35;;;30.00;;
38083;SDS011;23894;51.466;7.444;2023-04-29T05:21:36;37.05;;;30.45;;
38083;SDS011;23894;51.466;7.444;2023-04-29T05:23:37;38.38;;;31.63;;
38083;SDS011;23894;51.466;7.444;2023-04-29T05:25:39;37.10;;;31.52;;
38083;SDS011;23894;51.466;7.444;2023-04-29T05:27:40;36.58;;;30.02;;
38083;SDS011;23894;51.466;7.444;2023-04-29T05:29:41;41.63;;;33.00;;
38083;SDS011;23894;51.466;7.444;2023-04-29T05:31:42;40.10;;;33.50;;
38083;SDS011;23894;51.466;7.444;2023-04-29T05:33:43;37.50;;;32.10;;
38083;SDS011;23894;51.466;7.444;2023-04-29T05:35:44;39.60;;;31.88;;
38083;SDS011;23894;51.466;7.444;2023-04-29T05:37:45;38.28;;;31.90;;
38083;SDS011;23894;51.466;7.444;2023-04-29T05:39:46;39.40;;;33.10;;
38083;SDS011;23894;51.466;7.444;2023-04-29T05:41:47;41.33;;;33.85;;
38083;SDS011;23894;51.466;7.444;2023-04-29T05:43:48;38.42;;;32.20;;
38083;SDS011;23894;51.466;7.444;2023-04-29T05:45:49;39.55;;;33.47;;
38083;SDS011;23894;51.466;7.444;2023-04-29T05:47:50;39.73;;;32.97;;
38083;SDS011;23894;51.466;7.444;2023-04-29T05:49:51;37.92;;;32.45;;
38083;SDS011;23894;51.466;7.444;2023-04-29T05:51:52;40.28;;;34.03;;
38083;SDS011;23894;51.466;7.444;2023-04-29T05:53:53;38.38;;;32.45;;
38083;SDS011;23894;51.466;7.444;2023-04-29T05:55:55;39.72;;;33.65;;
38083;SDS011;23894;51.466;7.444;2023-04-29T05:57:57;41.85;;;34.85;;
38083;SDS011;23894;51.466;7.444;2023-04-29T05:59:58;41.03;;;33.10;;
38083;SDS011;23894;51.466;7.444;2023-04-29T06:01:59;36.53;;;32.53;;
38083;SDS011;23894;51.466;7.444;2023-04-29T06:04:00;39.42;;;33.00;;
38083;SDS011;23894;51.466;7.444;2023-04-29T06:06:01;40.30;;;34.38;;
38083;SDS011;23894;51.466;7.444;2023-04-29T06:08:03;38.92;;;34.03;;
38083;SDS011;23894;51.466;7.444;2023-04-29T06:10:04;38.17;;;32.10;;
38083;SDS011;23894;51.466;7.444;2023-04-29T06:12:06;38.92;;;32.47;;
38083;SDS011;23894;51.466;7.444;2023-04-29T06:14:07;37.10;;;32.17;;
38083;SDS011;23894;51.466;7.444;2023-04-29T06:16:08;36.92;;;31.58;;
38083;SDS011;23894;51.466;7.444;2023-04-29T06:18:09;37.08;;;30.88;;
38083;SDS011;23894;51.466;7.444;2023-04-29T06:20:10;38.83;;;32.65;;
38083;SDS011;23894;51.466;7.444;2023-04-29T06:22:11;35.78;;;31.23;;
38083;SDS011;23894;51.466;7.444;2023-04-29T06:24:12;34.13;;;30.10;;
38083;SDS011;23894;51.466;7.444;2023-04-29T06:26:13;35.63;;;30.77;;
38083;SDS011;23894;51.466;7.444;2023-04-29T06:28:14;34.47;;;29.85;;
38083;SDS011;23894;51.466;7.444;2023-04-29T06:30:16;33.53;;;29.88;;
38083;SDS011;23894;51.466;7.444;2023-04-29T06:32:17;33.78;;;29.65;;
38083;SDS011;23894;51.466;7.444;2023-04-29T06:34:18;33.42;;;29.77;;
38083;SDS011;23894;51.466;7.444;2023-04-29T06:36:19;33.75;;;30.15;;
38083;SDS011;23894;51.466;7.444;2023-04-29T06:38:20;34.95;;;31.05;;
38083;SDS011;23894;51.466;7.444;2023-04-29T06:40:21;37.33;;;32.45;;
38083;SDS011;23894;51.466;7.444;2023-04-29T06:42:22;39.22;;;33.80;;
38083;SDS011;23894;51.466;7.444;2023-04-29T06:44:23;36.75;;;31.95;;
38083;SDS011;23894;51.466;7.444;2023-04-29T06:46:24;36.25;;;32.03;;
38083;SDS011;23894;51.466;7.444;2023-04-29T06:48:26;37.17;;;31.23;;
38083;SDS011;23894;51.466;7.444;2023-04-29T06:50:28;37.72;;;32.22;;
38083;SDS011;23894;51.466;7.444;2023-04-29T06:52:29;35.92;;;31.98;;
38083;SDS011;23894;51.466;7.444;2023-04-29T06:54:31;36.03;;;31.42;;
38083;SDS011;23894;51.466;7.444;2023-04-29T06:56:32;34.80;;;31.00;;
38083;SDS011;23894;51.466;7.444;2023-04-29T06:58:33;34.97;;;30.70;;
38083;SDS011;23894;51.466;7.444;2023-04-29T07:00:34;37.03;;;32.10;;
38083;SDS011;23894;51.466;7.444;2023-04-29T07:02:35;35.00;;;31.23;;
38083;SDS011;23894;51.466;7.444;2023-04-29T07:04:37;35.47;;;30.27;;
38083;SDS011;23894;51.466;7.444;2023-04-29T07:06:38;34.28;;;30.58;;
38083;SDS011;23894;51.466;7.444;2023-04-29T07:08:40;34.00;;;30.30;;
38083;SDS011;23894;51.466;7.444;2023-04-29T07:10:41;34.00;;;30.38;;
38083;SDS011;23894;51.466;7.444;2023-04-29T07:12:42;34.00;;;30.35;;
38083;SDS011;23894;51.466;7.444;2023-04-29T07:14:43;35.40;;;31.02;;
38083;SDS011;23894;51.466;7.444;2023-04-29T07:16:44;36.42;;;31.35;;
38083;SDS011;23894;51.466;7.444;2023-04-29T07:18:45;35.38;;;30.35;;
38083;SDS011;23894;51.466;7.444;2023-04-29T07:20:46;35.00;;;30.70;;
38083;SDS011;23894;51.466;7.444;2023-04-29T07:22:47;35.35;;;30.58;;
38083;SDS011;23894;51.466;7.444;2023-04-29T07:24:48;37.30;;;29.98;;
38083;SDS011;23894;51.466;7.444;2023-04-29T07:26:52;37.08;;;29.65;;
38083;SDS011;23894;51.466;7.444;2023-04-29T07:28:53;36.85;;;30.65;;
38083;SDS011;23894;51.466;7.444;2023-04-29T07:30:54;35.60;;;30.23;;
38083;SDS011;23894;51.466;7.444;2023-04-29T07:32:55;34.45;;;29.77;;
38083;SDS011;23894;51.466;7.444;2023-04-29T07:34:57;35.58;;;30.25;;
38083;SDS011;23894;51.466;7.444;2023-04-29T07:36:58;34.88;;;30.33;;
38083;SDS011;23894;51.466;7.444;2023-04-29T07:38:59;35.88;;;31.08;;
38083;SDS011;23894;51.466;7.444;2023-04-29T07:41:00;38.40;;;31.23;;
38083;SDS011;23894;51.466;7.444;2023-04-29T07:43:02;34.92;;;30.83;;
38083;SDS011;23894;51.466;7.444;2023-04-29T07:45:05;40.55;;;32.05;;
38083;SDS011;23894;51.466;7.444;2023-04-29T07:47:06;35.17;;;30.92;;
38083;SDS011;23894;51.466;7.444;2023-04-29T07:49:08;37.95;;;31.00;;
38083;SDS011;23894;51.466;7.444;2023-04-29T07:51:12;35.95;;;30.33;;
38083;SDS011;23894;51.466;7.444;2023-04-29T07:53:13;36.70;;;30.93;;
38083;SDS011;23894;51.466;7.444;2023-04-29T07:55:15;36.25;;;30.02;;
38083;SDS011;23894;51.466;7.444;2023-04-29T07:57:16;38.88;;;31.58;;
38083;SDS011;23894;51.466;7.444;2023-04-29T07:59:17;33.92;;;29.83;;
38083;SDS011;23894;51.466;7.444;2023-04-29T08:01:18;37.17;;;31.00;;
38083;SDS011;23894;51.466;7.444;2023-04-29T08:03:19;38.55;;;31.63;;
38083;SDS011;23894;51.466;7.444;2023-04-29T08:05:21;42.45;;;33.60;;
38083;SDS011;23894;51.466;7.444;2023-04-29T08:07:22;41.38;;;32.85;;
38083;SDS011;23894;51.466;7.444;2023-04-29T08:09:23;42.83;;;33.47;;
38083;SDS011;23894;51.466;7.444;2023-04-29T08:11:24;42.08;;;34.28;;
38083;SDS011;23894;51.466;7.444;2023-04-29T08:13:26;42.83;;;35.28;;
38083;SDS011;23894;51.466;7.444;2023-04-29T08:15:27;41.30;;;34.05;;
38083;SDS011;23894;51.466;7.444;2023-04-29T08:17:28;45.35;;;36.97;;
38083;SDS011;23894;51.466;7.444;2023-04-29T08:19:29;47.10;;;37.00;;
38083;SDS011;23894;51.466;7.444;2023-04-29T08:21:30;48.85;;;38.38;;
38083;SDS011;23894;51.466;7.444;2023-04-29T08:23:31;47.25;;;36.63;;
38083;SDS011;23894;51.466;7.444;2023-04-29T08:25:33;50.00;;;39.40;;
38083;SDS011;23894;51.466;7.444;2023-04-29T08:27:34;48.35;;;38.35;;
38083;SDS011;23894;51.466;7.444;2023-04-29T08:29:35;50.03;;;39.47;;
38083;SDS011;23894;51.466;7.444;2023-04-29T08:31:36;46.83;;;38.00;;
38083;SDS011;23894;51.466;7.444;2023-04-29T08:33:37;50.35;;;38.95;;
38083;SDS011;23894;51.466;7.444;2023-04-29T08:35:38;54.30;;;40.85;;
38083;SDS011;23894;51.466;7.444;2023-04-29T08:37:39;53.05;;;39.65;;
38083;SDS011;23894;51.466;7.444;2023-04-29T08:39:40;53.97;;;41.22;;
38083;SDS011;23894;51.466;7.444;2023-04-29T08:41:45;53.08;;;41.40;;
38083;SDS011;23894;51.466;7.444;2023-04-29T08:43:50;53.13;;;41.10;;
38083;SDS011;23894;51.466;7.444;2023-04-29T08:45:51;51.83;;;41.63;;
38083;SDS011;23894;51.466;7.444;2023-04-29T08:47:52;58.05;;;42.40;;
38083;SDS011;23894;51.466;7.444;2023-04-29T08:49:54;51.83;;;41.67;;
38083;SDS011;23894;51.466;7.444;2023-04-29T08:51:55;55.45;;;43.83;;
38083;SDS011;23894;51.466;7.444;2023-04-29T08:53:56;57.00;;;42.97;;
38083;SDS011;23894;51.466;7.444;2023-04-29T08:56:00;56.17;;;43.13;;
38083;SDS011;23894;51.466;7.444;2023-04-29T08:58:03;56.37;;;43.23;;
38083;SDS011;23894;51.466;7.444;2023-04-29T09:00:05;56.97;;;44.23;;
38083;SDS011;23894;51.466;7.444;2023-04-29T09:02:09;59.83;;;43.83;;
38083;SDS011;23894;51.466;7.444;2023-04-29T09:04:29;57.40;;;43.90;;
38083;SDS011;23894;51.466;7.444;2023-04-29T09:06:30;58.58;;;44.47;;
38083;SDS011;23894;51.466;7.444;2023-04-29T09:08:32;59.38;;;44.97;;
38083;SDS011;23894;51.466;7.444;2023-04-29T09:10:36;63.47;;;46.63;;
38083;SDS011;23894;51.466;7.444;2023-04-29T09:12:38;63.58;;;46.60;;
38083;SDS011;23894;51.466;7.444;2023-04-29T09:14:39;61.42;;;46.22;;
38083;SDS011;23894;51.466;7.444;2023-04-29T09:16:40;58.53;;;44.73;;
38083;SDS011;23894;51.466;7.444;2023-04-29T09:18:45;60.97;;;46.00;;
38083;SDS011;23894;51.466;7.444;2023-04-29T09:20:46;59.25;;;45.35;;
38083;SDS011;23894;51.466;7.444;2023-04-29T09:22:48;63.00;;;47.70;;
38083;SDS011;23894;51.466;7.444;2023-04-29T09:24:49;65.65;;;47.15;;
38083;SDS011;23894;51.466;7.444;2023-04-29T09:26:50;63.28;;;47.38;;
38083;SDS011;23894;51.466;7.444;2023-04-29T09:29:08;59.38;;;45.97;;
38083;SDS011;23894;51.466;7.444;2023-04-29T09:31:10;78.28;;;48.08;;
38083;SDS011;23894;51.466;7.444;2023-04-29T09:33:12;64.00;;;46.67;;
38083;SDS011;23894;51.466;7.444;2023-04-29T09:35:21;75.40;;;49.55;;
38083;SDS011;23894;51.466;7.444;2023-04-29T09:37:23;73.15;;;47.17;;
38083;SDS011;23894;51.466;7.444;2023-04-29T09:39:26;67.05;;;45.75;;
38083;SDS011;23894;51.466;7.444;2023-04-29T09:41:27;77.28;;;48.75;;
38083;SDS011;23894;51.466;7.444;2023-04-29T09:43:28;65.97;;;46.25;;
38083;SDS011;23894;51.466;7.444;2023-04-29T09:45:36;60.05;;;45.92;;
38083;SDS011;23894;51.466;7.444;2023-04-29T09:47:37;57.53;;;45.03;;
38083;SDS011;23894;51.466;7.444;2023-04-29T09:49:39;60.85;;;45.35;;
38083;SDS011;23894;51.466;7.444;2023-04-29T09:51:50;64.15;;;45.10;;
38083;SDS011;23894;51.466;7.444;2023-04-29T09:53:51;61.60;;;45.63;;
38083;SDS011;23894;51.466;7.444;2023-04-29T09:57:53;60.92;;;44.78;;
38083;SDS011;23894;51.466;7.444;2023-04-29T09:59:55;55.38;;;43.15;;
38083;SDS011;23894;51.466;7.444;2023-04-29T10:01:56;52.72;;;43.10;;
38083;SDS011;23894;51.466;7.444;2023-04-29T10:03:57;56.53;;;43.38;;
38083;SDS011;23894;51.466;7.444;2023-04-29T10:05:59;52.95;;;42.88;;
38083;SDS011;23894;51.466;7.444;2023-04-29T10:08:00;54.25;;;43.60;;
38083;SDS011;23894;51.466;7.444;2023-04-29T10:10:02;52.50;;;40.45;;
38083;SDS011;23894;51.466;7.444;2023-04-29T10:12:04;47.22;;;40.17;;
38083;SDS011;23894;51.466;7.444;2023-04-29T10:14:07;49.50;;;39.60;;
38083;SDS011;23894;51.466;7.444;2023-04-29T10:16:27;47.60;;;40.55;;
38083;SDS011;23894;51.466;7.444;2023-04-29T10:18:35;53.47;;;43.65;;
38083;SDS011;23894;51.466;7.444;2023-04-29T10:20:36;49.50;;;41.33;;
38083;SDS011;23894;51.466;7.444;2023-04-29T10:22:41;51.50;;;41.42;;
38083;SDS011;23894;51.466;7.444;2023-04-29T10:24:45;46.93;;;40.00;;
38083;SDS011;23894;51.466;7.444;2023-04-29T10:26:49;44.80;;;38.28;;
38083;SDS011;23894;51.466;7.444;2023-04-29T10:28:50;42.13;;;37.28;;
38083;SDS011;23894;51.466;7.444;2023-04-29T10:30:53;45.88;;;38.20;;
38083;SDS011;23894;51.466;7.444;2023-04-29T10:32:55;44.80;;;37.38;;
38083;SDS011;23894;51.466;7.444;2023-04-29T10:34:58;43.78;;;36.90;;
38083;SDS011;23894;51.466;7.444;2023-04-29T10:36:59;43.13;;;36.83;;
38083;SDS011;23894;51.466;7.444;2023-04-29T10:39:02;43.30;;;37.87;;
38083;SDS011;23894;51.466;7.444;2023-04-29T10:41:08;47.20;;;38.65;;
38083;SDS011;23894;51.466;7.444;2023-04-29T10:43:10;43.72;;;38.75;;
38083;SDS011;23894;51.466;7.444;2023-04-29T10:45:27;43.50;;;37.90;;
38083;SDS011;23894;51.466;7.444;2023-04-29T10:47:31;44.35;;;37.53;;
38083;SDS011;23894;51.466;7.444;2023-04-29T10:49:33;44.08;;;38.25;;
38083;SDS011;23894;51.466;7.444;2023-04-29T10:51:38;42.83;;;36.53;;
38083;SDS011;23894;51.466;7.444;2023-04-29T10:53:58;45.17;;;38.65;;
38083;SDS011;23894;51.466;7.444;2023-04-29T10:56:04;43.17;;;37.67;;
38083;SDS011;23894;51.466;7.444;2023-04-29T10:58:05;46.97;;;37.10;;
38083;SDS011;23894;51.466;7.444;2023-04-29T11:00:27;43.35;;;35.80;;
38083;SDS011;23894;51.466;7.444;2023-04-29T11:02:28;42.97;;;36.40;;
38083;SDS011;23894;51.466;7.444;2023-04-29T11:04:30;41.83;;;36.97;;
38083;SDS011;23894;51.466;7.444;2023-04-29T11:08:38;45.10;;;37.63;;
38083;SDS011;23894;51.466;7.444;2023-04-29T11:10:39;42.72;;;35.80;;
38083;SDS011;23894;51.466;7.444;2023-04-29T11:12:41;45.00;;;35.60;;
38083;SDS011;23894;51.466;7.444;2023-04-29T11:14:48;39.22;;;34.65;;
38083;SDS011;23894;51.466;7.444;2023-04-29T11:16:50;38.43;;;33.77;;
38083;SDS011;23894;51.466;7.444;2023-04-29T11:19:07;38.70;;;32.83;;
38083;SDS011;23894;51.466;7.444;2023-04-29T11:23:09;35.90;;;31.75;;
38083;SDS011;23894;51.466;7.444;2023-04-29T11:25:10;37.35;;;32.22;;
38083;SDS011;23894;51.466;7.444;2023-04-29T11:27:11;40.30;;;32.65;;
38083;SDS011;23894;51.466;7.444;2023-04-29T11:29:13;35.43;;;30.70;;
38083;SDS011;23894;51.466;7.444;2023-04-29T11:31:14;36.17;;;31.07;;
38083;SDS011;23894;51.466;7.444;2023-04-29T11:33:15;33.92;;;29.95;;
38083;SDS011;23894;51.466;7.444;2023-04-29T11:35:17;34.80;;;31.10;;
38083;SDS011;23894;51.466;7.444;2023-04-29T11:37:25;33.80;;;29.45;;
38083;SDS011;23894;51.466;7.444;2023-04-29T11:39:26;32.07;;;27.77;;
38083;SDS011;23894;51.466;7.444;2023-04-29T11:41:27;30.20;;;26.57;;
38083;SDS011;23894;51.466;7.444;2023-04-29T11:43:28;32.00;;;26.73;;
38083;SDS011;23894;51.466;7.444;2023-04-29T11:45:29;31.70;;;27.53;;
38083;SDS011;23894;51.466;7.444;2023-04-29T11:47:31;28.58;;;25.23;;
38083;SDS011;23894;51.466;7.444;2023-04-29T11:49:33;30.25;;;25.83;;
38083;SDS011;23894;51.466;7.444;2023-04-29T11:51:34;28.83;;;25.20;;
38083;SDS011;23894;51.466;7.444;2023-04-29T11:53:36;27.20;;;23.58;;
38083;SDS011;23894;51.466;7.444;2023-04-29T11:55:42;28.08;;;25.10;;
38083;SDS011;23894;51.466;7.444;2023-04-29T11:57:44;26.67;;;23.77;;
38083;SDS011;23894;51.466;7.444;2023-04-29T11:59:50;29.10;;;24.02;;
38083;SDS011;23894;51.466;7.444;2023-04-29T12:01:52;26.55;;;23.75;;
38083;SDS011;23894;51.466;7.444;2023-04-29T12:03:57;27.87;;;24.87;;
38083;SDS011;23894;51.466;7.444;2023-04-29T12:06:00;28.75;;;24.90;;
38083;SDS011;23894;51.466;7.444;2023-04-29T12:08:01;26.85;;;23.48;;
38083;SDS011;23894;51.466;7.444;2023-04-29T12:10:02;26.00;;;23.20;;